createdAt,value
2018-06-11T00:01:19.081Z,49.40
2018-06-11T00:03:46.701Z,43.47
2018-06-11T00:06:14.365Z,48.40
2018-06-11T00:08:42.004Z,45.83
2018-06-11T00:11:09.627Z,50.70
2018-06-11T00:13:37.226Z,48.67
2018-06-11T00:16:04.879Z,49.20
2018-06-11T00:18:32.541Z,52.33
2018-06-11T00:21:00.153Z,58.50
2018-06-11T00:23:27.775Z,56.83
2018-06-11T00:25:55.402Z,62.33
2018-06-11T00:28:23.021Z,63.57
2018-06-11T00:30:50.616Z,58.40
2018-06-11T00:33:18.263Z,58.57
2018-06-11T00:35:45.873Z,59.63
2018-06-11T00:38:13.474Z,68.23
2018-06-11T00:40:41.126Z,62.60
2018-06-11T00:43:09.216Z,64.80
2018-06-11T00:45:36.908Z,70.00
2018-06-11T00:48:04.840Z,64.57
2018-06-11T00:50:32.510Z,66.47
2018-06-11T00:53:00.132Z,63.50
2018-06-11T00:56:11.758Z,63.17
2018-06-11T00:58:39.369Z,60.00
2018-06-11T01:01:07.031Z,60.67
2018-06-11T01:03:34.721Z,65.73
2018-06-11T01:06:02.280Z,58.80
2018-06-11T01:08:30.852Z,58.87
2018-06-11T01:10:58.518Z,56.77
2018-06-11T01:13:26.163Z,64.77
2018-06-11T01:15:53.710Z,54.97
2018-06-11T01:18:21.278Z,55.80
2018-06-11T01:20:48.862Z,53.77
2018-06-11T01:23:16.488Z,53.13
2018-06-11T01:25:44.043Z,55.33
2018-06-11T01:28:11.616Z,60.57
2018-06-11T01:30:39.199Z,57.60
2018-06-11T01:33:06.798Z,60.03
2018-06-11T01:35:34.375Z,52.33
2018-06-11T01:38:01.965Z,56.13
2018-06-11T01:40:29.625Z,55.73
2018-06-11T01:42:57.250Z,52.30
2018-06-11T01:45:24.934Z,54.30
2018-06-11T01:47:52.536Z,54.00
2018-06-11T01:50:20.077Z,52.40
2018-06-11T01:52:47.658Z,51.73
2018-06-11T01:55:15.548Z,53.10
2018-06-11T01:57:43.105Z,53.80
2018-06-11T02:00:10.727Z,58.37
2018-06-11T02:02:38.344Z,61.97
2018-06-11T02:05:05.904Z,60.90
2018-06-11T02:07:33.496Z,57.43
2018-06-11T02:10:01.102Z,55.87
2018-06-11T02:12:28.676Z,59.47
2018-06-11T02:14:56.311Z,60.40
2018-06-11T02:17:23.885Z,57.33
2018-06-11T02:19:51.419Z,56.30
2018-06-11T02:22:18.989Z,57.57
2018-06-11T02:24:46.581Z,59.00
2018-06-11T02:27:14.116Z,59.60
2018-06-11T02:29:41.673Z,62.37
2018-06-11T02:32:09.254Z,61.50
2018-06-11T02:34:36.815Z,59.97
2018-06-11T02:37:04.427Z,63.90
2018-06-11T02:39:32.009Z,66.70
2018-06-11T02:41:59.597Z,59.90
2018-06-11T02:44:27.234Z,72.77
2018-06-11T02:46:54.827Z,65.37
2018-06-11T02:49:22.486Z,66.87
2018-06-11T02:51:50.057Z,74.30
2018-06-11T02:54:17.711Z,71.63
2018-06-11T02:56:45.280Z,66.70
2018-06-11T02:59:12.942Z,70.87
2018-06-11T03:01:40.511Z,68.50
2018-06-11T03:04:08.060Z,68.33
2018-06-11T03:06:35.660Z,67.20
2018-06-11T03:09:05.194Z,65.87
2018-06-11T03:11:32.874Z,68.87
2018-06-11T03:14:00.469Z,60.97
2018-06-11T03:16:28.189Z,53.13
2018-06-11T03:18:55.778Z,65.43
2018-06-11T03:21:23.392Z,62.30
2018-06-11T03:23:50.998Z,60.10
2018-06-11T03:26:18.573Z,57.43
2018-06-11T03:28:46.153Z,63.20
2018-06-11T03:31:13.809Z,59.67
2018-06-11T03:33:41.449Z,60.20
2018-06-11T03:36:09.063Z,56.13
2018-06-11T03:38:36.669Z,63.87
2018-06-11T03:41:04.242Z,57.93
2018-06-11T03:43:31.854Z,61.47
2018-06-11T03:45:59.460Z,60.63
2018-06-11T03:48:27.018Z,56.70
2018-06-11T03:50:54.658Z,57.90
2018-06-11T03:53:22.279Z,58.33
2018-06-11T03:55:49.861Z,59.73
2018-06-11T03:58:17.446Z,59.10
2018-06-11T04:00:45.119Z,61.40
2018-06-11T04:03:12.814Z,56.57
2018-06-11T04:05:40.425Z,57.83
2018-06-11T04:08:07.999Z,57.87
2018-06-11T04:10:35.631Z,57.27
2018-06-11T04:13:03.355Z,60.20
2018-06-11T04:15:30.967Z,52.67
2018-06-11T04:17:58.521Z,58.07
2018-06-11T04:20:26.119Z,54.80
2018-06-11T04:22:53.729Z,56.60
2018-06-11T04:25:21.380Z,56.43
2018-06-11T04:27:48.966Z,54.00
2018-06-11T04:30:16.523Z,51.83
2018-06-11T04:32:44.133Z,54.10
2018-06-11T04:35:11.990Z,53.83
2018-06-11T04:37:39.628Z,53.87
2018-06-11T04:40:07.222Z,50.90
2018-06-11T04:42:34.846Z,52.70
2018-06-11T04:45:02.382Z,50.30
2018-06-11T04:47:29.958Z,51.20
2018-06-11T04:49:57.530Z,52.17
2018-06-11T04:52:25.130Z,49.00
2018-06-11T04:54:52.701Z,50.40
2018-06-11T04:57:20.291Z,46.37
2018-06-11T04:59:47.849Z,50.60
2018-06-11T05:02:15.445Z,52.40
2018-06-11T05:04:42.997Z,49.10
2018-06-11T05:07:10.571Z,51.37
2018-06-11T05:09:38.130Z,46.83
2018-06-11T05:12:05.705Z,48.83
2018-06-11T05:14:33.304Z,50.23
2018-06-11T05:17:01.525Z,48.90
2018-06-11T05:19:29.077Z,45.07
2018-06-11T05:21:56.688Z,48.07
2018-06-11T05:24:24.292Z,46.00
2018-06-11T05:26:52.009Z,46.60
2018-06-11T05:29:19.630Z,46.63
2018-06-11T05:31:47.282Z,44.60
2018-06-11T05:34:14.910Z,44.47
2018-06-11T05:36:42.528Z,45.87
2018-06-11T05:39:10.159Z,45.30
2018-06-11T05:41:37.821Z,41.97
2018-06-11T05:44:05.392Z,44.70
2018-06-11T05:46:32.998Z,44.20
2018-06-11T05:49:00.541Z,43.97
2018-06-11T05:51:28.133Z,46.47
2018-06-11T05:53:55.721Z,46.80
2018-06-11T05:56:23.285Z,45.97
2018-06-11T05:58:50.852Z,44.27
2018-06-11T06:01:18.459Z,43.10
2018-06-11T06:03:46.371Z,44.87
2018-06-11T06:06:13.951Z,43.07
2018-06-11T06:08:41.567Z,44.93
2018-06-11T06:11:09.185Z,42.03
2018-06-11T06:13:36.893Z,45.80
2018-06-11T06:16:04.496Z,43.10
2018-06-11T06:18:32.071Z,40.80
2018-06-11T06:20:59.613Z,42.50
2018-06-11T06:23:27.136Z,37.83
2018-06-11T06:25:54.750Z,44.20
2018-06-11T06:28:22.314Z,37.47
2018-06-11T06:30:50.170Z,38.20
2018-06-11T06:33:17.865Z,39.23
2018-06-11T06:35:45.518Z,36.00
2018-06-11T06:38:13.192Z,35.53
2018-06-11T06:40:40.776Z,37.80
2018-06-11T06:43:08.974Z,39.17
2018-06-11T06:45:36.602Z,39.00
2018-06-11T06:48:04.246Z,39.33
2018-06-11T06:50:31.921Z,35.03
2018-06-11T06:52:59.554Z,35.57
2018-06-11T06:55:27.101Z,34.63
2018-06-11T06:57:54.743Z,35.20
2018-06-11T07:00:22.369Z,33.33
2018-06-11T07:02:50.033Z,27.00
2018-06-11T07:05:17.674Z,31.17
2018-06-11T07:07:45.275Z,27.97
2018-06-11T07:10:12.977Z,30.27
2018-06-11T07:12:40.557Z,28.20
2018-06-11T07:15:08.169Z,23.10
2018-06-11T07:17:35.868Z,22.30
2018-06-11T07:20:03.773Z,24.30
2018-06-11T07:22:31.575Z,25.33
2018-06-11T07:24:59.183Z,26.33
2018-06-11T07:27:26.811Z,22.57
2018-06-11T07:29:54.425Z,27.50
2018-06-11T07:32:22.035Z,26.57
2018-06-11T07:34:49.631Z,22.37
2018-06-11T07:37:17.256Z,27.00
2018-06-11T07:39:44.922Z,25.87
2018-06-11T07:42:12.530Z,26.40
2018-06-11T07:44:40.182Z,26.47
2018-06-11T07:47:07.795Z,26.70
2018-06-11T07:49:35.439Z,26.50
2018-06-11T07:52:03.044Z,20.63
2018-06-11T07:54:31.137Z,21.90
2018-06-11T07:56:58.691Z,16.10
2018-06-11T07:59:26.335Z,16.23
2018-06-11T08:01:53.922Z,16.93
2018-06-11T08:04:21.545Z,17.37
2018-06-11T08:06:49.073Z,20.20
2018-06-11T08:09:16.669Z,18.63
2018-06-11T08:11:44.300Z,21.63
2018-06-11T08:14:11.883Z,20.50
2018-06-11T08:16:39.480Z,16.03
2018-06-11T08:19:07.070Z,21.07
2018-06-11T08:21:34.631Z,17.67
2018-06-11T08:24:02.238Z,20.37
2018-06-11T08:26:29.822Z,19.20
2018-06-11T08:28:57.459Z,19.53
2018-06-11T08:31:25.042Z,18.67
2018-06-11T08:33:52.633Z,20.40
2018-06-11T08:36:20.266Z,23.10
2018-06-11T08:38:47.860Z,23.40
2018-06-11T08:41:15.425Z,23.50
2018-06-11T08:43:43.031Z,20.70
2018-06-11T08:46:10.674Z,23.63
2018-06-11T08:48:38.266Z,22.70
2018-06-11T08:51:06.891Z,21.90
2018-06-11T08:53:34.445Z,25.50
2018-06-11T08:56:02.037Z,25.57
2018-06-11T08:58:29.665Z,23.40
2018-06-11T09:00:57.291Z,26.97
2018-06-11T09:03:24.870Z,26.10
2018-06-11T09:05:52.481Z,26.77
2018-06-11T09:08:20.077Z,28.00
2018-06-11T09:10:47.703Z,28.33
2018-06-11T09:13:15.302Z,24.60
2018-06-11T09:15:42.886Z,29.90
2018-06-11T09:18:10.701Z,26.03
2018-06-11T09:20:38.144Z,28.03
2018-06-11T09:23:06.276Z,23.80
2018-06-11T09:25:33.846Z,27.00
2018-06-11T09:28:01.550Z,25.77
2018-06-11T09:30:29.150Z,27.33
2018-06-11T09:32:56.704Z,26.40
2018-06-11T09:35:24.334Z,22.23
2018-06-11T09:37:51.891Z,23.40
2018-06-11T09:40:19.489Z,24.07
2018-06-11T09:42:47.121Z,25.00
2018-06-11T09:45:14.706Z,24.70
2018-06-11T09:47:42.321Z,27.20
2018-06-11T09:50:09.950Z,22.33
2018-06-11T09:52:37.584Z,23.37
2018-06-11T09:55:05.275Z,24.13
2018-06-11T09:57:32.887Z,25.67
2018-06-11T10:00:00.503Z,28.60
2018-06-11T10:02:28.129Z,27.80
2018-06-11T10:04:55.748Z,27.00
2018-06-11T10:07:23.309Z,29.40
2018-06-11T10:09:50.923Z,25.77
2018-06-11T10:12:18.573Z,28.47
2018-06-11T10:14:46.122Z,26.57
2018-06-11T10:17:13.763Z,27.50
2018-06-11T10:19:41.386Z,25.80
2018-06-11T10:22:08.986Z,23.50
2018-06-11T10:24:36.550Z,24.67
2018-06-11T10:27:04.095Z,24.07
2018-06-11T10:29:31.681Z,21.70
2018-06-11T10:31:59.229Z,23.93
2018-06-11T10:34:26.844Z,23.00
2018-06-11T10:36:54.473Z,23.73
2018-06-11T10:39:22.101Z,23.87
2018-06-11T10:41:49.693Z,23.27
2018-06-11T10:44:17.291Z,22.33
2018-06-11T10:46:44.950Z,23.67
2018-06-11T10:49:12.599Z,23.20
2018-06-11T10:51:40.187Z,22.53
2018-06-11T10:54:07.864Z,21.00
2018-06-11T10:56:35.579Z,25.00
2018-06-11T10:59:03.226Z,22.27
2018-06-11T11:01:30.840Z,25.17
2018-06-11T11:03:58.428Z,21.00
2018-06-11T11:06:26.075Z,21.30
2018-06-11T11:08:53.626Z,21.70
2018-06-11T11:11:21.230Z,23.03
2018-06-11T11:13:48.828Z,21.67
2018-06-11T11:16:16.534Z,23.60
2018-06-11T11:18:44.137Z,23.90
2018-06-11T11:21:12.048Z,20.50
2018-06-11T11:23:39.649Z,21.30
2018-06-11T11:26:07.269Z,20.47
2018-06-11T11:28:34.832Z,22.97
2018-06-11T11:31:02.479Z,22.30
2018-06-11T11:33:30.117Z,21.70
2018-06-11T11:35:57.706Z,20.27
2018-06-11T11:38:25.296Z,19.43
2018-06-11T11:40:52.910Z,22.67
2018-06-11T11:43:20.525Z,21.80
2018-06-11T11:45:48.169Z,23.23
2018-06-11T11:48:15.771Z,24.73
2018-06-11T11:50:43.442Z,22.00
2018-06-11T11:53:11.065Z,22.77
2018-06-11T11:55:38.662Z,18.00
2018-06-11T11:58:06.195Z,26.20
2018-06-11T12:00:33.780Z,27.47
2018-06-11T12:03:01.494Z,22.87
2018-06-11T12:05:29.066Z,17.30
2018-06-11T12:07:56.654Z,24.10
2018-06-11T12:10:24.274Z,21.90
2018-06-11T12:12:51.876Z,24.37
2018-06-11T12:15:19.482Z,23.13
2018-06-11T12:17:47.092Z,23.10
2018-06-11T12:20:14.702Z,18.50
2018-06-11T12:22:42.241Z,20.90
2018-06-11T12:25:09.908Z,23.13
2018-06-11T12:27:37.549Z,20.87
2018-06-11T12:30:05.196Z,20.83
2018-06-11T12:32:32.801Z,20.67
2018-06-11T12:35:00.441Z,20.00
2018-06-11T12:37:28.017Z,22.43
2018-06-11T12:39:55.567Z,19.57
2018-06-11T12:42:23.147Z,18.23
2018-06-11T12:44:50.679Z,21.20
2018-06-11T12:47:18.254Z,23.87
2018-06-11T12:49:46.221Z,21.00
2018-06-11T12:52:13.885Z,20.97
2018-06-11T12:54:41.442Z,17.50
2018-06-11T12:57:09.089Z,20.47
2018-06-11T12:59:36.712Z,25.10
2018-06-11T13:02:04.636Z,23.00
2018-06-11T13:04:32.303Z,23.00
2018-06-11T13:06:59.954Z,24.20
2018-06-11T13:09:27.602Z,23.90
2018-06-11T13:11:55.295Z,23.93
2018-06-11T13:14:22.943Z,23.93
2018-06-11T13:16:50.551Z,22.63
2018-06-11T13:19:18.283Z,22.67
2018-06-11T13:21:46.020Z,20.57
2018-06-11T13:24:13.690Z,20.33
2018-06-11T13:26:41.341Z,22.17
2018-06-11T13:29:08.953Z,20.10
2018-06-11T13:31:36.625Z,16.97
2018-06-11T13:34:04.170Z,17.67
2018-06-11T13:36:31.840Z,18.80
2018-06-11T13:38:59.481Z,19.97
2018-06-11T13:41:27.112Z,20.37
2018-06-11T13:43:54.751Z,18.30
2018-06-11T13:46:22.382Z,15.20
2018-06-11T13:48:50.054Z,14.40
2018-06-11T13:51:17.720Z,15.43
2018-06-11T13:53:45.362Z,17.40
2018-06-11T13:56:12.952Z,18.50
2018-06-11T13:58:40.554Z,18.97
2018-06-11T14:01:08.196Z,16.67
2018-06-11T14:03:35.851Z,18.70
2018-06-11T14:06:03.636Z,18.07
2018-06-11T14:08:31.371Z,18.43
2018-06-11T14:10:58.961Z,22.80
2018-06-11T14:13:26.545Z,20.27
2018-06-11T14:15:54.136Z,21.80
2018-06-11T14:18:21.688Z,20.77
2018-06-11T14:20:49.254Z,21.13
2018-06-11T14:23:16.891Z,23.70
2018-06-11T14:25:44.466Z,23.03
2018-06-11T14:28:12.109Z,20.70
2018-06-11T14:30:39.756Z,23.40
2018-06-11T14:33:07.356Z,21.10
2018-06-11T14:35:34.910Z,22.30
2018-06-11T14:38:02.508Z,20.07
2018-06-11T14:40:30.148Z,23.07
2018-06-11T14:42:57.838Z,20.00
2018-06-11T14:45:25.596Z,17.77
2018-06-11T14:47:53.206Z,19.90
2018-06-11T14:50:20.871Z,19.57
2018-06-11T14:52:48.500Z,18.60
2018-06-11T14:55:16.070Z,18.97
2018-06-11T14:57:43.753Z,19.13
2018-06-11T15:00:11.404Z,20.07
2018-06-11T15:02:38.991Z,20.27
2018-06-11T15:05:06.617Z,19.87
2018-06-11T15:07:34.271Z,20.27
2018-06-11T15:10:01.897Z,19.47
2018-06-11T15:12:29.680Z,18.93
2018-06-11T15:14:57.263Z,19.23
2018-06-11T15:17:24.815Z,18.60
2018-06-11T15:19:52.397Z,17.50
2018-06-11T15:22:20.013Z,17.97
2018-06-11T15:24:47.622Z,17.47
2018-06-11T15:27:15.203Z,17.40
2018-06-11T15:29:42.826Z,19.37
2018-06-11T15:32:10.408Z,18.80
2018-06-11T15:34:38.986Z,17.97
2018-06-11T15:37:06.774Z,18.73
2018-06-11T15:39:34.384Z,17.77
2018-06-11T15:42:02.019Z,19.80
2018-06-11T15:44:29.719Z,18.13
2018-06-11T15:46:57.292Z,19.87
2018-06-11T15:49:24.913Z,18.13
2018-06-11T15:51:52.491Z,17.30
2018-06-11T15:54:20.082Z,18.63
2018-06-11T15:56:47.799Z,19.47
2018-06-11T15:59:15.423Z,19.47
2018-06-11T16:01:43.066Z,28.00
2018-06-11T16:04:10.710Z,19.47
2018-06-11T16:06:38.427Z,22.00
2018-06-11T16:09:07.002Z,19.33
2018-06-11T16:11:34.737Z,18.63
2018-06-11T16:14:02.490Z,17.90
2018-06-11T16:16:30.037Z,19.50
2018-06-11T16:18:57.646Z,20.10
2018-06-11T16:21:25.240Z,17.70
2018-06-11T16:23:52.884Z,20.00
2018-06-11T16:26:20.532Z,18.90
2018-06-11T16:28:48.081Z,18.27
2018-06-11T16:31:15.677Z,19.10
2018-06-11T16:33:43.322Z,18.13
2018-06-11T16:36:10.961Z,18.17
2018-06-11T16:38:38.720Z,20.97
2018-06-11T16:41:07.097Z,17.70
2018-06-11T16:43:34.690Z,17.63
2018-06-11T16:46:02.345Z,16.47
2018-06-11T16:48:30.022Z,17.97
2018-06-11T16:50:57.627Z,18.07
2018-06-11T16:53:25.248Z,18.23
2018-06-11T16:55:52.853Z,16.57
2018-06-11T16:58:20.431Z,16.80
2018-06-11T17:00:48.076Z,17.50
2018-06-11T17:03:15.703Z,16.43
2018-06-11T17:05:43.322Z,15.63
2018-06-11T17:08:10.911Z,14.50
2018-06-11T17:10:38.578Z,13.77
2018-06-11T17:13:06.199Z,13.80
2018-06-11T17:15:33.862Z,14.53
2018-06-11T17:18:01.531Z,15.40
2018-06-11T17:20:29.246Z,13.90
2018-06-11T17:22:56.845Z,15.70
2018-06-11T17:25:24.514Z,15.13
2018-06-11T17:27:52.189Z,13.83
2018-06-11T17:30:19.778Z,14.03
2018-06-11T17:32:47.317Z,14.70
2018-06-11T17:35:14.935Z,13.57
2018-06-11T17:37:42.475Z,13.70
2018-06-11T17:40:10.047Z,13.83
2018-06-11T17:42:37.715Z,12.00
2018-06-11T17:45:05.340Z,13.50
2018-06-11T17:47:33.052Z,12.30
2018-06-11T17:50:00.682Z,13.07
2018-06-11T17:52:28.299Z,13.60
2018-06-11T17:54:55.989Z,14.30
2018-06-11T17:57:24.920Z,13.40
2018-06-11T17:59:52.613Z,14.50
2018-06-11T18:02:20.277Z,12.73
2018-06-11T18:04:47.961Z,12.90
2018-06-11T18:07:15.578Z,12.90
2018-06-11T18:09:43.168Z,13.60
2018-06-11T18:12:10.760Z,15.10
2018-06-11T18:14:38.448Z,14.13
2018-06-11T18:17:06.162Z,14.13
2018-06-11T18:19:33.820Z,13.63
2018-06-11T18:22:01.500Z,14.33
2018-06-11T18:24:29.155Z,15.33
2018-06-11T18:26:57.046Z,13.73
2018-06-11T18:29:24.779Z,14.37
2018-06-11T18:31:52.545Z,15.30
2018-06-11T18:34:20.250Z,13.40
2018-06-11T18:36:48.045Z,14.40
2018-06-11T18:39:16.123Z,14.10
2018-06-11T18:41:43.859Z,14.77
2018-06-11T18:44:11.571Z,15.33
2018-06-11T18:46:39.292Z,13.50
2018-06-11T18:49:07.016Z,14.40
2018-06-11T18:51:34.742Z,13.93
2018-06-11T18:54:02.657Z,14.83
2018-06-11T18:56:30.431Z,14.60
2018-06-11T18:58:58.175Z,16.13
2018-06-11T19:01:25.875Z,13.67
2018-06-11T19:03:53.753Z,14.70
2018-06-11T19:06:22.701Z,13.73
2018-06-11T19:08:50.370Z,13.63
2018-06-11T19:11:17.988Z,16.87
2018-06-11T19:13:45.752Z,14.90
2018-06-11T19:16:13.464Z,16.73
2018-06-11T19:18:41.312Z,15.97
2018-06-11T19:21:08.917Z,15.40
2018-06-11T19:23:36.554Z,15.13
2018-06-11T19:26:04.224Z,16.67
2018-06-11T19:28:31.858Z,15.50
2018-06-11T19:30:59.482Z,16.83
2018-06-11T19:33:27.070Z,17.10
2018-06-11T19:35:54.760Z,17.30
2018-06-11T19:38:22.358Z,16.47
2018-06-11T19:40:50.057Z,16.80
2018-06-11T19:43:17.663Z,15.87
2018-06-11T19:45:45.286Z,16.67
2018-06-11T19:48:12.932Z,17.10
2018-06-11T19:50:40.574Z,16.43
2018-06-11T19:53:08.256Z,17.40
2018-06-11T19:55:35.961Z,17.20
2018-06-11T19:58:03.670Z,17.20
2018-06-11T20:00:31.384Z,18.20
2018-06-11T20:02:58.982Z,16.70
2018-06-11T20:05:26.649Z,18.13
2018-06-11T20:07:54.373Z,17.60
2018-06-11T20:10:22.035Z,17.10
2018-06-11T20:12:49.667Z,18.07
2018-06-11T20:15:17.390Z,18.80
2018-06-11T20:17:45.099Z,17.70
2018-06-11T20:20:12.851Z,17.70
2018-06-11T20:22:41.188Z,16.47
2018-06-11T20:25:09.782Z,17.47
2018-06-11T20:27:37.466Z,17.40
2018-06-11T20:30:05.155Z,16.67
2018-06-11T20:32:32.814Z,17.03
2018-06-11T20:35:00.480Z,17.80
2018-06-11T20:37:28.142Z,18.70
2018-06-11T20:39:55.829Z,18.03
2018-06-11T20:42:23.640Z,16.57
2018-06-11T20:44:51.386Z,17.53
2018-06-11T20:47:19.202Z,16.17
2018-06-11T20:49:46.936Z,18.00
2018-06-11T20:52:14.678Z,18.67
2018-06-11T20:54:42.506Z,18.70
2018-06-11T20:57:10.528Z,17.67
2018-06-11T20:59:39.020Z,18.20
2018-06-11T21:02:09.596Z,17.27
2018-06-11T21:04:37.360Z,16.90
2018-06-11T21:07:05.256Z,15.43
2018-06-11T21:09:32.887Z,15.97
2018-06-11T21:12:00.556Z,19.20
2018-06-11T21:14:28.778Z,19.17
2018-06-11T21:16:56.831Z,17.53
2018-06-11T21:19:24.556Z,17.43
2018-06-11T21:21:52.319Z,19.80
2018-06-11T21:24:20.355Z,18.67
2018-06-11T21:26:48.688Z,19.70
2018-06-11T21:29:16.499Z,18.37
2018-06-11T21:31:44.382Z,19.50
2018-06-11T21:34:12.092Z,18.53
2018-06-11T21:36:39.786Z,17.90
2018-06-11T21:39:08.217Z,18.97
2018-06-11T21:41:35.898Z,20.00
2018-06-11T21:44:03.796Z,18.77
2018-06-11T21:46:31.454Z,19.20
2018-06-11T21:48:59.161Z,20.27
2018-06-11T21:51:27.027Z,18.83
2018-06-11T21:53:54.985Z,20.60
2018-06-11T21:56:22.704Z,19.57
2018-06-11T21:58:50.482Z,19.93
2018-06-11T22:01:18.580Z,20.37
2018-06-11T22:03:46.468Z,19.73
2018-06-11T22:06:14.230Z,20.43
2018-06-11T22:08:42.057Z,20.77
2018-06-11T22:11:09.792Z,20.23
2018-06-11T22:13:37.549Z,19.03
2018-06-11T22:16:05.272Z,20.90
2018-06-11T22:18:33.265Z,22.90
2018-06-11T22:21:00.994Z,21.70
2018-06-11T22:23:28.662Z,23.30
2018-06-11T22:25:56.926Z,21.77
2018-06-11T22:28:24.639Z,21.90
2018-06-11T22:30:52.312Z,22.00
2018-06-11T22:33:20.090Z,21.00
2018-06-11T22:35:47.856Z,21.40
2018-06-11T22:38:15.675Z,22.20
2018-06-11T22:40:43.381Z,22.83
2018-06-11T22:43:11.234Z,23.60
2018-06-11T22:45:38.991Z,23.43
2018-06-11T22:48:06.720Z,24.73
2018-06-11T22:50:34.443Z,23.37
2018-06-11T22:53:02.116Z,25.40
2018-06-11T22:55:29.775Z,25.73
2018-06-11T22:57:57.447Z,25.67
2018-06-11T23:00:32.944Z,26.53
2018-06-11T23:03:01.039Z,26.73
2018-06-11T23:05:28.849Z,24.37
2018-06-11T23:07:58.151Z,23.90
2018-06-11T23:10:25.840Z,25.10
2018-06-11T23:12:53.555Z,27.00
2018-06-11T23:15:21.249Z,24.07
2018-06-11T23:17:48.915Z,23.83
2018-06-11T23:20:16.501Z,25.13
2018-06-11T23:22:44.059Z,24.00
2018-06-11T23:25:11.668Z,22.50
2018-06-11T23:27:39.320Z,21.90
2018-06-11T23:30:06.951Z,22.27
2018-06-11T23:32:34.583Z,22.63
2018-06-11T23:35:02.237Z,22.70
2018-06-11T23:37:29.820Z,19.70
2018-06-11T23:39:57.410Z,19.10
2018-06-11T23:42:25.062Z,18.00
2018-06-11T23:44:52.668Z,17.20
2018-06-11T23:47:20.412Z,18.03
2018-06-11T23:49:48.068Z,18.07
2018-06-11T23:52:15.734Z,17.37
2018-06-11T23:54:43.454Z,16.27
2018-06-11T23:57:11.323Z,16.70
2018-06-11T23:59:38.978Z,16.87
